createdAt,value
2023-05-07T00:00:50.812Z,16.20
2023-05-07T00:06:00.270Z,16.20
2023-05-07T00:11:06.463Z,16.20
2023-05-07T00:16:10.854Z,16.20
2023-05-07T00:21:14.979Z,16.20
2023-05-07T00:26:26.456Z,16.20
2023-05-07T00:31:30.827Z,16.20
2023-05-07T00:36:35.119Z,16.20
2023-05-07T00:41:40.752Z,16.20
2023-05-07T00:46:45.935Z,16.20
2023-05-07T00:51:56.535Z,16.20
2023-05-07T00:57:02.519Z,16.20
2023-05-07T01:02:06.732Z,16.20
2023-05-07T01:07:11.038Z,16.10
2023-05-07T01:12:17.075Z,16.10
2023-05-07T01:17:21.807Z,16.10
2023-05-07T01:22:33.255Z,16.10
2023-05-07T01:27:38.211Z,16.10
2023-05-07T01:32:47.628Z,16.10
2023-05-07T01:37:53.418Z,16.10
2023-05-07T01:42:57.797Z,16.10
2023-05-07T01:48:02.370Z,16.10
2023-05-07T01:53:08.003Z,16.10
2023-05-07T01:58:12.192Z,16.00
2023-05-07T02:03:16.925Z,16.00
2023-05-07T02:08:35.372Z,16.00
2023-05-07T02:13:40.062Z,16.00
2023-05-07T02:18:44.203Z,16.00
2023-05-07T02:23:49.690Z,16.00
2023-05-07T02:28:54.806Z,16.00
2023-05-07T02:33:59.312Z,15.90
2023-05-07T02:39:05.395Z,15.90
2023-05-07T02:44:10.196Z,15.90
2023-05-07T02:49:14.891Z,15.90
2023-05-07T02:54:20.466Z,15.90
2023-05-07T02:59:24.806Z,15.90
2023-05-07T03:04:29.010Z,15.90
2023-05-07T03:09:34.662Z,15.90
2023-05-07T03:14:39.065Z,15.90
2023-05-07T03:19:45.679Z,15.90
2023-05-07T03:24:51.073Z,15.80
2023-05-07T03:29:55.206Z,15.80
2023-05-07T03:34:59.472Z,15.80
2023-05-07T03:40:06.483Z,15.80
2023-05-07T03:45:19.406Z,15.80
2023-05-07T03:50:29.655Z,15.80
2023-05-07T03:55:35.276Z,15.80
2023-05-07T04:00:41.025Z,15.80
2023-05-07T04:05:56.255Z,15.80
2023-05-07T04:11:02.522Z,15.80
2023-05-07T04:16:10.355Z,15.80
2023-05-07T04:21:20.080Z,15.80
2023-05-07T04:26:26.657Z,15.80
2023-05-07T04:31:31.668Z,15.80
2023-05-07T04:36:36.588Z,15.80
2023-05-07T04:41:48.525Z,15.80
2023-05-07T04:46:52.586Z,15.80
2023-05-07T04:51:56.923Z,15.80
2023-05-07T04:57:02.946Z,15.80
2023-05-07T05:02:07.160Z,15.90
2023-05-07T05:07:11.842Z,15.90
2023-05-07T05:12:17.265Z,15.90
2023-05-07T05:17:22.302Z,15.90
2023-05-07T05:22:26.718Z,16.00
2023-05-07T05:27:32.775Z,16.00
2023-05-07T05:32:37.873Z,16.00
2023-05-07T05:37:43.214Z,16.10
2023-05-07T05:42:48.859Z,16.10
2023-05-07T05:47:54.672Z,16.10
2023-05-07T05:53:00.475Z,16.10
2023-05-07T05:58:07.789Z,16.20
2023-05-07T06:03:15.956Z,16.20
2023-05-07T06:08:21.090Z,16.20
2023-05-07T06:13:26.775Z,16.20
2023-05-07T06:18:31.388Z,16.30
2023-05-07T06:23:36.301Z,16.30
2023-05-07T06:28:44.690Z,16.30
2023-05-07T06:33:51.850Z,16.40
2023-05-07T06:38:57.070Z,16.40
2023-05-07T06:44:02.798Z,16.40
2023-05-07T06:49:16.957Z,16.40
2023-05-07T06:54:24.626Z,16.50
2023-05-07T06:59:30.851Z,16.50
2023-05-07T07:04:36.390Z,16.50
2023-05-07T07:09:44.369Z,16.60
2023-05-07T07:19:59.449Z,16.60
2023-05-07T07:25:04.168Z,16.70
2023-05-07T07:30:11.163Z,16.80
2023-05-07T07:35:18.836Z,16.90
2023-05-07T07:40:23.658Z,17.00
2023-05-07T07:45:30.081Z,17.10
2023-05-07T07:50:44.637Z,17.10
2023-05-07T07:55:53.145Z,17.20
2023-05-07T08:01:02.550Z,17.30
2023-05-07T08:06:07.043Z,17.30
2023-05-07T08:11:13.287Z,17.30
2023-05-07T08:16:19.512Z,17.40
2023-05-07T08:21:24.806Z,17.50
2023-05-07T08:26:29.109Z,17.50
2023-05-07T08:31:34.641Z,17.60
2023-05-07T08:36:38.869Z,17.70
2023-05-07T08:41:44.918Z,17.80
2023-05-07T08:46:55.150Z,17.90
2023-05-07T08:52:02.253Z,18.00
2023-05-07T08:57:06.985Z,18.10
2023-05-07T09:02:14.418Z,18.10
2023-05-07T09:08:01.479Z,18.20
2023-05-07T09:13:19.364Z,18.30
2023-05-07T09:18:26.535Z,18.30
2023-05-07T09:23:31.644Z,18.30
2023-05-07T09:28:35.865Z,18.40
2023-05-07T09:33:42.821Z,18.50
2023-05-07T09:38:49.098Z,18.50
2023-05-07T09:43:57.321Z,18.50
2023-05-07T09:49:11.245Z,18.50
2023-05-07T09:54:16.583Z,18.50
2023-05-07T09:59:24.928Z,18.60
2023-05-07T10:04:31.484Z,18.60
2023-05-07T10:09:39.432Z,18.60
2023-05-07T10:14:48.602Z,18.70
2023-05-07T10:19:56.298Z,18.80
2023-05-07T10:25:06.082Z,19.00
2023-05-07T10:30:23.402Z,19.10
2023-05-07T10:35:36.951Z,19.20
2023-05-07T10:40:42.688Z,19.40
2023-05-07T10:46:14.245Z,19.50
2023-05-07T10:51:24.322Z,19.60
2023-05-07T10:56:38.867Z,19.60
2023-05-07T11:01:58.934Z,19.60
2023-05-07T11:07:33.541Z,19.60
2023-05-07T11:12:57.164Z,19.60
2023-05-07T11:18:21.581Z,19.60
2023-05-07T11:24:01.031Z,19.70
2023-05-07T11:29:24.271Z,19.60
2023-05-07T11:34:36.856Z,19.60
2023-05-07T11:39:42.277Z,19.50
2023-05-07T11:44:49.185Z,19.50
2023-05-07T11:49:54.640Z,19.50
2023-05-07T11:55:05.573Z,19.50
2023-05-07T12:00:14.529Z,19.50
2023-05-07T12:05:18.667Z,19.50
2023-05-07T12:10:25.895Z,19.50
2023-05-07T12:15:30.414Z,19.50
2023-05-07T12:20:35.975Z,19.60
2023-05-07T12:25:47.744Z,19.60
2023-05-07T12:30:53.876Z,19.60
2023-05-07T12:36:09.202Z,19.60
2023-05-07T12:41:14.600Z,19.70
2023-05-07T12:46:19.681Z,19.70
2023-05-07T12:51:24.556Z,19.70
2023-05-07T12:56:33.079Z,19.70
2023-05-07T13:01:37.564Z,19.70
2023-05-07T13:06:41.681Z,19.60
2023-05-07T13:11:47.309Z,19.50
2023-05-07T13:16:51.378Z,19.50
2023-05-07T13:21:55.610Z,19.40
2023-05-07T13:27:01.084Z,19.40
2023-05-07T13:32:06.020Z,19.40
2023-05-07T13:37:11.638Z,19.40
2023-05-07T13:42:17.835Z,19.40
2023-05-07T13:47:24.060Z,19.50
2023-05-07T13:52:29.707Z,19.40
2023-05-07T13:57:39.442Z,19.50
2023-05-07T14:02:44.787Z,19.60
2023-05-07T14:07:50.226Z,19.60
2023-05-07T14:12:56.045Z,19.70
2023-05-07T14:18:00.462Z,19.80
2023-05-07T14:23:04.566Z,19.80
2023-05-07T14:28:10.168Z,19.90
2023-05-07T14:33:14.177Z,19.90
2023-05-07T14:38:18.296Z,19.90
2023-05-07T14:43:23.948Z,19.80
2023-05-07T14:48:28.681Z,19.90
2023-05-07T14:53:32.676Z,19.90
2023-05-07T14:58:38.223Z,19.90
2023-05-07T15:03:42.401Z,19.90
2023-05-07T15:08:46.783Z,19.90
2023-05-07T15:13:52.524Z,19.90
2023-05-07T15:18:56.687Z,19.90
2023-05-07T15:24:01.668Z,20.00
2023-05-07T15:29:11.066Z,20.10
2023-05-07T15:34:16.104Z,20.10
2023-05-07T15:39:33.841Z,20.10
2023-05-07T15:44:40.534Z,20.00
2023-05-07T15:49:44.830Z,19.90
2023-05-07T15:54:48.857Z,19.80
2023-05-07T15:59:54.285Z,19.70
2023-05-07T16:04:58.355Z,19.60
2023-05-07T16:10:02.606Z,19.60
2023-05-07T16:15:09.736Z,19.50
2023-05-07T16:20:15.490Z,19.40
2023-05-07T16:25:19.653Z,19.40
2023-05-07T16:30:25.171Z,19.40
2023-05-07T16:35:29.391Z,19.30
2023-05-07T16:40:33.536Z,19.30
2023-05-07T16:45:38.989Z,19.30
2023-05-07T16:50:44.566Z,19.30
2023-05-07T16:55:48.882Z,19.30
2023-05-07T17:00:54.515Z,19.20
2023-05-07T17:06:01.611Z,19.20
2023-05-07T17:11:05.677Z,19.20
2023-05-07T17:16:11.202Z,19.10
2023-05-07T17:21:15.279Z,19.10
2023-05-07T17:26:19.413Z,19.00
2023-05-07T17:31:25.036Z,19.00
2023-05-07T17:36:29.469Z,18.90
2023-05-07T17:41:36.173Z,18.90
2023-05-07T17:46:41.630Z,18.90
2023-05-07T17:51:53.979Z,18.80
2023-05-07T17:56:59.506Z,18.80
2023-05-07T18:02:05.051Z,18.80
2023-05-07T18:07:09.764Z,18.80
2023-05-07T18:12:13.924Z,18.70
2023-05-07T18:17:19.465Z,18.60
2023-05-07T18:22:23.597Z,18.60
2023-05-07T18:27:27.677Z,18.60
2023-05-07T18:32:33.199Z,18.50
2023-05-07T18:37:37.263Z,18.50
2023-05-07T18:42:41.364Z,18.50
2023-05-07T18:47:46.935Z,18.40
2023-05-07T18:52:51.096Z,18.40
2023-05-07T18:57:55.135Z,18.30
2023-05-07T19:03:00.589Z,18.30
2023-05-07T19:08:04.691Z,18.20
2023-05-07T19:13:08.807Z,18.20
2023-05-07T19:18:22.308Z,18.20
2023-05-07T19:23:26.474Z,18.20
2023-05-07T19:28:31.066Z,18.10
2023-05-07T19:33:37.067Z,18.10
2023-05-07T19:38:43.109Z,18.00
2023-05-07T19:43:47.508Z,18.00
2023-05-07T19:48:53.131Z,18.00
2023-05-07T19:53:57.195Z,18.00
2023-05-07T19:59:01.349Z,18.00
2023-05-07T20:04:07.413Z,17.90
2023-05-07T20:09:12.976Z,17.90
2023-05-07T20:14:17.228Z,17.90
2023-05-07T20:19:22.923Z,17.80
2023-05-07T20:24:27.152Z,17.80
2023-05-07T20:29:31.297Z,17.80
2023-05-07T20:34:36.819Z,17.70
2023-05-07T20:39:41.059Z,17.70
2023-05-07T20:44:45.250Z,17.60
2023-05-07T20:49:53.544Z,17.60
2023-05-07T20:54:57.607Z,17.60
2023-05-07T21:00:01.763Z,17.60
2023-05-07T21:05:08.431Z,17.50
2023-05-07T21:10:12.766Z,17.50
2023-05-07T21:15:17.238Z,17.50
2023-05-07T21:20:22.768Z,17.50
2023-05-07T21:25:26.844Z,17.50
2023-05-07T21:30:31.092Z,17.50
2023-05-07T21:35:36.765Z,17.50
2023-05-07T21:40:40.827Z,17.50
2023-05-07T21:45:44.998Z,17.40
2023-05-07T21:50:57.388Z,17.40
2023-05-07T21:56:02.369Z,17.40
2023-05-07T22:01:06.498Z,17.40
2023-05-07T22:06:11.965Z,17.40
2023-05-07T22:11:16.002Z,17.30
2023-05-07T22:16:20.295Z,17.40
2023-05-07T22:21:26.001Z,17.30
2023-05-07T22:26:30.098Z,17.30
2023-05-07T22:31:34.362Z,17.30
2023-05-07T22:36:39.933Z,17.30
2023-05-07T22:41:44.053Z,17.30
2023-05-07T22:46:49.821Z,17.20
2023-05-07T22:51:55.282Z,17.20
2023-05-07T22:56:59.972Z,17.20
2023-05-07T23:02:05.079Z,17.20
2023-05-07T23:07:10.805Z,17.10
2023-05-07T23:12:14.916Z,17.10
2023-05-07T23:17:19.218Z,17.00
2023-05-07T23:22:24.669Z,17.00
2023-05-07T23:27:28.789Z,17.00
2023-05-07T23:32:33.083Z,17.00
2023-05-07T23:37:39.198Z,17.00
2023-05-07T23:42:43.277Z,17.00
2023-05-07T23:47:47.511Z,17.00
2023-05-07T23:52:53.004Z,17.00
2023-05-07T23:57:57.080Z,17.00
